Time;durP1;ratioP1;P1;durP2;ratioP2;P2;SDS_P1;SDS_P2;PMS_P1;PMS_P2;Temp;Humidity;BMP_temperature;BMP_pressure;BME280_temperature;BME280_humidity;BME280_pressure;Samples;Min_cycle;Max_cycle;Signal;HPM_P1;HPM_P2
2022/03/14 00:02:07;;;;;;;;;;;0.70;65.10;;;;;;4965912;28;87635;-49
2022/03/14 00:04:34;;;;;;;;;;;0.70;65.10;;;;;;4969489;28;86887;-51
2022/03/14 00:07:00;;;;;;;;;;;0.70;65.00;;;;;;4965980;28;88483;-49
2022/03/14 00:09:27;;;;;;;;;;;0.70;65.00;;;;;;4966667;28;86915;-49
2022/03/14 00:11:54;;;;;;;;;;;0.70;65.00;;;;;;4966241;28;87780;-49
2022/03/14 00:14:22;;;;;;;;;;;0.70;65.10;;;;;;4966405;28;87093;-49
2022/03/14 00:16:47;;;;;;;;;;;0.70;65.10;;;;;;4966104;28;86959;-51
2022/03/14 00:19:14;;;;;;;;;;;0.70;65.10;;;;;;4966225;28;87935;-50
2022/03/14 00:21:40;;;;;;;;;;;0.60;65.00;;;;;;4965072;28;89369;-50
2022/03/14 00:24:07;;;;;;;;;;;0.60;65.00;;;;;;4968041;28;86881;-49
2022/03/14 00:26:33;;;;;;;;;;;0.60;65.10;;;;;;4972038;28;87028;-50
2022/03/14 00:28:59;;;;;;;;;;;0.60;65.20;;;;;;4969535;28;86814;-50
2022/03/14 00:31:24;;;;;;;;;;;0.60;65.10;;;;;;4969763;28;86955;-50
2022/03/14 00:33:50;;;;;;;;;;;0.50;65.10;;;;;;4969009;28;87619;-50
2022/03/14 00:36:16;;;;;;;;;;;0.60;65.10;;;;;;4969306;28;86831;-49
2022/03/14 00:38:42;;;;;;;;;;;0.60;65.10;;;;;;4969802;28;87613;-49
2022/03/14 00:41:08;;;;;;;;;;;0.60;65.00;;;;;;4968928;28;87729;-50
2022/03/14 00:43:34;;;;;;;;;;;0.50;65.00;;;;;;4969255;28;87157;-49
2022/03/14 00:46:00;;;;;;;;;;;0.50;65.00;;;;;;4968721;28;87832;-50
2022/03/14 00:48:26;;;;;;;;;;;0.50;65.20;;;;;;4971319;28;87464;-50
2022/03/14 00:50:52;;;;;;;;;;;0.50;65.20;;;;;;4969152;28;87568;-50
2022/03/14 00:53:18;;;;;;;;;;;0.50;65.10;;;;;;4969099;28;87615;-49
2022/03/14 00:55:44;;;;;;;;;;;0.50;65.20;;;;;;4969218;28;87210;-50
2022/03/14 00:58:09;;;;;;;;;;;0.50;65.30;;;;;;4969347;28;86900;-49
2022/03/14 01:00:35;;;;;;;;;;;0.50;65.30;;;;;;4968778;28;87370;-49
2022/03/14 01:03:02;;;;;;;;;;;0.40;65.20;;;;;;4969767;28;86083;-49
2022/03/14 01:05:27;;;;;;;;;;;0.40;65.30;;;;;;4969002;28;87354;-51
2022/03/14 01:07:53;;;;;;;;;;;0.40;65.40;;;;;;4971498;28;88892;-50
2022/03/14 01:10:20;;;;;;;;;;;0.40;65.40;;;;;;4968657;28;88031;-49
2022/03/14 01:12:46;;;;;;;;;;;0.40;65.40;;;;;;4968540;28;88457;-50
2022/03/14 01:15:12;;;;;;;;;;;0.40;65.30;;;;;;4968946;28;86928;-49
2022/03/14 01:17:40;;;;;;;;;;;0.40;65.30;;;;;;4968761;28;87049;-49
2022/03/14 01:20:06;;;;;;;;;;;0.30;65.80;;;;;;4968377;28;89022;-50
2022/03/14 01:22:32;;;;;;;;;;;0.30;65.30;;;;;;4969017;28;86849;-50
2022/03/14 01:24:58;;;;;;;;;;;0.40;65.30;;;;;;4968766;28;87192;-50
2022/03/14 01:27:24;;;;;;;;;;;0.30;65.20;;;;;;4968772;28;88033;-49
2022/03/14 01:29:49;;;;;;;;;;;0.30;65.30;;;;;;4971486;28;86880;-49
2022/03/14 01:32:15;;;;;;;;;;;0.30;65.30;;;;;;4968148;28;89030;-49
2022/03/14 01:34:41;;;;;;;;;;;0.30;65.40;;;;;;4967671;28;88113;-50
2022/03/14 01:37:07;;;;;;;;;;;0.20;65.40;;;;;;4968322;28;89009;-49
2022/03/14 01:39:32;;;;;;;;;;;0.30;65.90;;;;;;4967933;28;88624;-50
2022/03/14 01:41:58;;;;;;;;;;;0.20;65.30;;;;;;4968415;28;87029;-49
2022/03/14 01:44:25;;;;;;;;;;;0.20;65.30;;;;;;4968460;28;87799;-51
2022/03/14 01:46:51;;;;;;;;;;;0.20;65.30;;;;;;4967918;28;88549;-49
2022/03/14 01:49:18;;;;;;;;;;;0.20;65.30;;;;;;4967908;28;86864;-50
2022/03/14 01:51:44;;;;;;;;;;;0.20;65.30;;;;;;4971324;28;86933;-49
2022/03/14 01:54:10;;;;;;;;;;;0.20;65.30;;;;;;4968486;28;87186;-50
2022/03/14 01:56:38;;;;;;;;;;;0.20;65.40;;;;;;4968125;28;87083;-52
2022/03/14 01:59:04;;;;;;;;;;;0.20;65.30;;;;;;4967034;28;89831;-50
2022/03/14 02:01:29;;;;;;;;;;;0.20;65.40;;;;;;4968037;28;86908;-51
2022/03/14 02:03:55;;;;;;;;;;;0.20;65.40;;;;;;4968074;28;88068;-49
2022/03/14 02:06:21;;;;;;;;;;;0.20;65.30;;;;;;4967830;28;86887;-50
2022/03/14 02:08:47;;;;;;;;;;;0.20;65.10;;;;;;4968020;28;86864;-49
2022/03/14 02:11:12;;;;;;;;;;;0.10;65.40;;;;;;4968358;28;86860;-49
2022/03/14 02:13:38;;;;;;;;;;;0.20;65.80;;;;;;4970421;28;89051;-49
2022/03/14 02:16:03;;;;;;;;;;;0.20;65.30;;;;;;4967469;28;86718;-50
2022/03/14 02:18:29;;;;;;;;;;;0.20;65.30;;;;;;4967435;28;87669;-49
2022/03/14 02:20:56;;;;;;;;;;;0.20;65.30;;;;;;4967810;28;86866;-49
2022/03/14 02:23:21;;;;;;;;;;;0.10;65.20;;;;;;4966493;28;87838;-50
2022/03/14 02:25:48;;;;;;;;;;;0.10;65.00;;;;;;4967376;28;88381;-49
2022/03/14 02:28:15;;;;;;;;;;;0.10;65.30;;;;;;4967683;28;86866;-50
2022/03/14 02:30:41;;;;;;;;;;;0.10;65.30;;;;;;4967673;28;88192;-49
2022/03/14 02:33:08;;;;;;;;;;;0.10;65.20;;;;;;4967304;28;88655;-49
2022/03/14 02:35:35;;;;;;;;;;;0.10;65.20;;;;;;4970472;28;86921;-49
2022/03/14 02:38:01;;;;;;;;;;;0.10;65.20;;;;;;4967148;28;88590;-49
2022/03/14 02:40:26;;;;;;;;;;;0.10;65.00;;;;;;4968008;28;86152;-49
2022/03/14 02:42:52;;;;;;;;;;;0.10;64.90;;;;;;4967740;28;86805;-50
2022/03/14 02:45:19;;;;;;;;;;;0.10;65.10;;;;;;4966354;28;87713;-51
2022/03/14 02:47:45;;;;;;;;;;;0.10;65.10;;;;;;4965889;28;87832;-49
2022/03/14 02:50:10;;;;;;;;;;;0.10;65.10;;;;;;4967340;28;87807;-49
2022/03/14 02:52:36;;;;;;;;;;;0.10;65.10;;;;;;4967272;28;87478;-49
2022/03/14 02:55:02;;;;;;;;;;;0.10;65.70;;;;;;4967336;28;86963;-51
2022/03/14 02:57:28;;;;;;;;;;;0.00;65.00;;;;;;4969824;28;86989;-49
2022/03/14 02:59:54;;;;;;;;;;;0.10;64.90;;;;;;4967261;28;86856;-52
2022/03/14 03:02:22;;;;;;;;;;;0.10;65.00;;;;;;4967239;28;86932;-49
2022/03/14 03:04:48;;;;;;;;;;;0.00;65.00;;;;;;4967261;28;87812;-49
2022/03/14 03:07:14;;;;;;;;;;;0.00;65.00;;;;;;4967180;28;86933;-49
2022/03/14 03:09:40;;;;;;;;;;;0.10;64.90;;;;;;4967033;28;87698;-50
2022/03/14 03:12:11;;;;;;;;;;;0.00;64.90;;;;;;4966226;28;88396;-50
2022/03/14 03:14:37;;;;;;;;;;;-0.10;65.00;;;;;;4966219;28;87162;-53
2022/03/14 03:17:02;;;;;;;;;;;0.00;65.10;;;;;;4969541;28;87875;-52
2022/03/14 03:19:28;;;;;;;;;;;0.00;65.00;;;;;;4967052;28;87089;-53
2022/03/14 03:21:53;;;;;;;;;;;0.00;65.00;;;;;;4966895;28;88055;-51
2022/03/14 03:24:19;;;;;;;;;;;0.00;65.00;;;;;;4966544;28;88585;-50
2022/03/14 03:26:45;;;;;;;;;;;0.00;64.90;;;;;;4967025;28;86932;-49
2022/03/14 03:29:10;;;;;;;;;;;0.00;65.00;;;;;;4967469;28;86793;-49
2022/03/14 03:31:36;;;;;;;;;;;0.00;64.80;;;;;;4966358;28;88067;-49
2022/03/14 03:34:02;;;;;;;;;;;-0.10;64.90;;;;;;4966692;28;86868;-50
2022/03/14 03:36:28;;;;;;;;;;;-0.10;64.90;;;;;;4965991;28;87990;-49
2022/03/14 03:38:53;;;;;;;;;;;-0.10;64.90;;;;;;4969226;28;87390;-49
2022/03/14 03:41:19;;;;;;;;;;;0.00;64.80;;;;;;4966617;28;87102;-49
2022/03/14 03:43:44;;;;;;;;;;;-0.10;64.80;;;;;;4966568;28;87663;-49
2022/03/14 03:46:10;;;;;;;;;;;-0.10;64.90;;;;;;4966590;28;86869;-50
2022/03/14 03:48:36;;;;;;;;;;;-0.10;65.00;;;;;;4966291;28;87088;-50
2022/03/14 03:51:02;;;;;;;;;;;-0.10;64.80;;;;;;4966473;28;87429;-48
2022/03/14 03:53:28;;;;;;;;;;;-0.20;64.90;;;;;;4966968;28;86162;-47
2022/03/14 03:55:54;;;;;;;;;;;-0.20;64.90;;;;;;4966488;28;87437;-47
2022/03/14 03:58:19;;;;;;;;;;;-0.20;65.00;;;;;;4966916;28;88673;-48
2022/03/14 04:00:45;;;;;;;;;;;-0.30;65.00;;;;;;4972205;28;87811;-48
2022/03/14 04:03:11;;;;;;;;;;;-0.20;64.90;;;;;;4969838;28;87512;-48
2022/03/14 04:05:39;;;;;;;;;;;-0.20;65.00;;;;;;4969877;28;86894;-48
2022/03/14 04:08:10;;;;;;;;;;;-0.30;65.00;;;;;;4969854;28;87103;-48
2022/03/14 04:10:36;;;;;;;;;;;-0.20;64.90;;;;;;4969398;28;88688;-48
2022/03/14 04:13:06;;;;;;;;;;;-0.20;64.90;;;;;;4969781;28;86853;-47
2022/03/14 04:15:39;;;;;;;;;;;-0.20;64.70;;;;;;4969748;28;88086;-47
2022/03/14 04:18:04;;;;;;;;;;;-0.20;64.90;;;;;;4969199;28;86957;-48
2022/03/14 04:20:30;;;;;;;;;;;-0.30;64.80;;;;;;4969761;28;87037;-48
2022/03/14 04:22:56;;;;;;;;;;;-0.30;64.80;;;;;;4972142;28;87955;-48
2022/03/14 04:25:22;;;;;;;;;;;-0.20;64.80;;;;;;4969015;28;87838;-49
2022/03/14 04:27:48;;;;;;;;;;;-0.30;64.70;;;;;;4969207;28;88151;-48
2022/03/14 04:30:16;;;;;;;;;;;-0.30;64.80;;;;;;4969121;28;87702;-48
2022/03/14 04:32:42;;;;;;;;;;;-0.30;64.80;;;;;;4969579;28;87198;-48
2022/03/14 04:35:08;;;;;;;;;;;-0.30;64.70;;;;;;4969406;28;87104;-48
2022/03/14 04:37:34;;;;;;;;;;;-0.30;64.80;;;;;;4969069;28;88355;-48
2022/03/14 04:39:59;;;;;;;;;;;-0.30;64.80;;;;;;4969395;28;86989;-49
2022/03/14 04:42:25;;;;;;;;;;;-0.40;64.80;;;;;;4970239;28;86279;-48
2022/03/14 04:44:52;;;;;;;;;;;-0.40;64.70;;;;;;4971796;28;88608;-48
2022/03/14 04:47:18;;;;;;;;;;;-0.40;64.80;;;;;;4969121;28;87929;-48
2022/03/14 04:49:44;;;;;;;;;;;-0.40;64.80;;;;;;4968205;28;89558;-48
2022/03/14 04:52:09;;;;;;;;;;;-0.40;64.80;;;;;;4969263;28;86949;-49
2022/03/14 04:54:35;;;;;;;;;;;-0.40;64.80;;;;;;4969241;28;86974;-49
2022/03/14 04:57:01;;;;;;;;;;;-0.40;64.80;;;;;;4968970;28;87572;-48
2022/03/14 04:59:26;;;;;;;;;;;-0.40;64.70;;;;;;4969025;28;86844;-48
2022/03/14 05:01:52;;;;;;;;;;;-0.40;64.80;;;;;;4969086;28;87391;-47
2022/03/14 05:04:18;;;;;;;;;;;-0.40;64.60;;;;;;4968653;28;88462;-48
2022/03/14 05:06:45;;;;;;;;;;;-0.50;64.60;;;;;;4972259;28;86007;-48
2022/03/14 05:09:10;;;;;;;;;;;-0.40;64.80;;;;;;4966874;28;86959;-48
2022/03/14 05:11:38;;;;;;;;;;;-0.40;64.80;;;;;;4969161;28;87099;-48
2022/03/14 05:14:09;;;;;;;;;;;-0.50;64.70;;;;;;4968366;28;88119;-48
2022/03/14 05:16:36;;;;;;;;;;;-0.50;64.70;;;;;;4968361;28;87798;-47
2022/03/14 05:19:02;;;;;;;;;;;-0.50;64.60;;;;;;4968838;28;86758;-49
2022/03/14 05:21:27;;;;;;;;;;;-0.50;64.60;;;;;;4968819;28;87347;-48
2022/03/14 05:23:53;;;;;;;;;;;-0.50;64.80;;;;;;4968311;28;87603;-49
2022/03/14 05:26:19;;;;;;;;;;;-0.50;64.70;;;;;;4971568;28;86856;-48
2022/03/14 05:28:44;;;;;;;;;;;-0.50;64.70;;;;;;4968203;28;88547;-48
2022/03/14 05:31:10;;;;;;;;;;;-0.50;64.80;;;;;;4969416;28;86337;-48
2022/03/14 05:33:35;;;;;;;;;;;-0.50;64.50;;;;;;4968550;28;87495;-49
2022/03/14 05:36:01;;;;;;;;;;;-0.60;64.60;;;;;;4968029;28;88616;-49
2022/03/14 05:38:28;;;;;;;;;;;-0.50;64.60;;;;;;4967808;28;88201;-48
2022/03/14 05:40:55;;;;;;;;;;;-0.60;64.60;;;;;;4968294;28;88174;-48
2022/03/14 05:43:21;;;;;;;;;;;-0.60;64.70;;;;;;4968032;28;87648;-47
2022/03/14 05:45:47;;;;;;;;;;;-0.60;64.70;;;;;;4968454;28;86889;-48
2022/03/14 05:48:12;;;;;;;;;;;-0.60;64.80;;;;;;4970391;28;88846;-48
2022/03/14 05:50:38;;;;;;;;;;;-0.60;64.70;;;;;;4968272;28;87072;-49
2022/03/14 05:53:04;;;;;;;;;;;-0.60;64.50;;;;;;4968352;28;87030;-48
2022/03/14 05:55:30;;;;;;;;;;;-0.60;64.80;;;;;;4968332;28;87668;-48
2022/03/14 05:57:56;;;;;;;;;;;-0.60;64.60;;;;;;4968543;28;86980;-49
2022/03/14 06:00:25;;;;;;;;;;;-0.60;64.70;;;;;;4968219;28;87211;-49
2022/03/14 06:02:52;;;;;;;;;;;-0.60;64.60;;;;;;4967115;28;88659;-48
2022/03/14 06:05:19;;;;;;;;;;;-0.60;64.70;;;;;;4968014;28;86880;-48
2022/03/14 06:07:45;;;;;;;;;;;-0.60;64.70;;;;;;4968245;28;87978;-48
2022/03/14 06:10:13;;;;;;;;;;;-0.60;64.70;;;;;;4970405;28;87835;-48
2022/03/14 06:12:39;;;;;;;;;;;-0.70;64.60;;;;;;4968036;28;87981;-48
2022/03/14 06:15:09;;;;;;;;;;;-0.60;65.20;;;;;;4967587;28;87661;-48
2022/03/14 06:17:35;;;;;;;;;;;-0.70;64.60;;;;;;4967823;28;86895;-49
2022/03/14 06:20:01;;;;;;;;;;;-0.60;64.60;;;;;;4968488;28;86104;-48
2022/03/14 06:22:27;;;;;;;;;;;-0.60;64.60;;;;;;4966835;28;87037;-48
2022/03/14 06:24:53;;;;;;;;;;;-0.60;64.60;;;;;;4967851;28;86910;-47
2022/03/14 06:27:20;;;;;;;;;;;-0.70;64.60;;;;;;4967454;28;87801;-48
2022/03/14 06:29:46;;;;;;;;;;;-0.60;64.60;;;;;;4967412;28;87669;-48
2022/03/14 06:32:12;;;;;;;;;;;-0.60;64.70;;;;;;4970960;28;86918;-47
2022/03/14 06:34:38;;;;;;;;;;;-0.60;64.40;;;;;;4967206;28;88542;-47
2022/03/14 06:37:07;;;;;;;;;;;-0.60;64.70;;;;;;4967713;28;86937;-48
2022/03/14 06:39:35;;;;;;;;;;;-0.60;64.60;;;;;;4966984;28;86956;-48
2022/03/14 06:42:02;;;;;;;;;;;-0.60;64.70;;;;;;4967437;28;87849;-48
2022/03/14 06:44:29;;;;;;;;;;;-0.70;64.60;;;;;;4968029;28;86146;-48
2022/03/14 06:46:55;;;;;;;;;;;-0.70;64.60;;;;;;4967479;28;87114;-48
2022/03/14 06:49:21;;;;;;;;;;;-0.70;64.70;;;;;;4967025;28;88539;-48
2022/03/14 06:51:47;;;;;;;;;;;-0.70;64.70;;;;;;4966693;28;87804;-48
2022/03/14 06:54:14;;;;;;;;;;;-0.70;64.70;;;;;;4969291;28;87886;-47
2022/03/14 06:56:41;;;;;;;;;;;-0.70;64.60;;;;;;4966144;28;86907;-47
2022/03/14 06:59:07;;;;;;;;;;;-0.70;64.60;;;;;;4966761;28;87215;-48
2022/03/14 07:01:32;;;;;;;;;;;-0.60;64.80;;;;;;4966496;28;87523;-48
2022/03/14 07:03:58;;;;;;;;;;;-0.60;64.70;;;;;;4966450;28;86943;-47
2022/03/14 07:06:23;;;;;;;;;;;-0.60;64.70;;;;;;4966540;28;88335;-48
2022/03/14 07:08:49;;;;;;;;;;;-0.60;64.70;;;;;;4966588;28;87665;-48
2022/03/14 07:11:14;;;;;;;;;;;-0.60;64.50;;;;;;4966463;28;86981;-49
2022/03/14 07:13:40;;;;;;;;;;;-0.60;64.40;;;;;;4969337;28;86896;-48
2022/03/14 07:16:05;;;;;;;;;;;-0.60;64.60;;;;;;4965463;28;87940;-48
2022/03/14 07:18:31;;;;;;;;;;;-0.60;64.80;;;;;;4966336;28;88885;-48
2022/03/14 07:20:57;;;;;;;;;;;-0.60;64.70;;;;;;4965860;28;87668;-49
2022/03/14 07:23:23;;;;;;;;;;;-0.60;64.40;;;;;;4966221;28;86972;-48
2022/03/14 07:25:50;;;;;;;;;;;-0.60;64.50;;;;;;4966280;28;88216;-48
2022/03/14 07:28:15;;;;;;;;;;;-0.60;64.60;;;;;;4964710;28;87646;-49
2022/03/14 07:30:41;;;;;;;;;;;-0.60;64.80;;;;;;4966025;28;86896;-48
2022/03/14 07:33:07;;;;;;;;;;;-0.60;64.80;;;;;;4966333;28;86976;-48
2022/03/14 07:35:32;;;;;;;;;;;-0.60;64.80;;;;;;4968649;28;87445;-49
2022/03/14 07:37:58;;;;;;;;;;;-0.60;64.90;;;;;;4966046;28;87893;-48
2022/03/14 07:40:24;;;;;;;;;;;-0.70;64.90;;;;;;4964814;28;89565;-48
2022/03/14 07:42:50;;;;;;;;;;;-0.70;65.00;;;;;;4965983;28;86872;-48
2022/03/14 07:45:17;;;;;;;;;;;-0.70;65.10;;;;;;4965991;28;87980;-47
2022/03/14 07:47:43;;;;;;;;;;;-0.70;65.10;;;;;;4965229;28;87749;-48
2022/03/14 07:50:10;;;;;;;;;;;-0.70;65.10;;;;;;4966168;28;87001;-48
2022/03/14 07:52:36;;;;;;;;;;;-0.70;65.30;;;;;;4966179;28;86937;-48
2022/03/14 07:55:02;;;;;;;;;;;-0.70;65.10;;;;;;4965670;28;87524;-48
2022/03/14 07:57:28;;;;;;;;;;;-0.70;65.20;;;;;;4969077;28;86204;-47
2022/03/14 07:59:53;;;;;;;;;;;-0.70;65.30;;;;;;4965372;28;88549;-50
2022/03/14 08:02:20;;;;;;;;;;;-0.70;65.50;;;;;;4965955;28;87201;-49
2022/03/14 08:04:45;;;;;;;;;;;-0.70;65.30;;;;;;4965181;28;87843;-48
2022/03/14 08:07:11;;;;;;;;;;;-0.70;65.30;;;;;;4965573;28;88754;-48
2022/03/14 08:09:36;;;;;;;;;;;-0.70;65.50;;;;;;4965566;28;86955;-48
2022/03/14 08:12:04;;;;;;;;;;;-0.70;65.50;;;;;;4965650;28;87988;-48
2022/03/14 08:14:31;;;;;;;;;;;-0.70;65.30;;;;;;4965261;28;87826;-48
2022/03/14 08:16:57;;;;;;;;;;;-0.70;65.30;;;;;;4965524;28;87009;-48
2022/03/14 08:19:22;;;;;;;;;;;-0.70;65.20;;;;;;4968365;28;86888;-48
2022/03/14 08:21:48;;;;;;;;;;;-0.70;65.20;;;;;;4965579;28;86113;-50
2022/03/14 08:24:14;;;;;;;;;;;-0.70;65.20;;;;;;4965588;28;86943;-48
2022/03/14 08:26:42;;;;;;;;;;;-0.70;65.30;;;;;;4965091;28;87920;-48
2022/03/14 08:29:08;;;;;;;;;;;-0.70;65.30;;;;;;4964907;28;87848;-49
2022/03/14 08:31:34;;;;;;;;;;;-0.70;65.50;;;;;;4965392;28;90002;-48
2022/03/14 08:34:00;;;;;;;;;;;-0.70;65.60;;;;;;4965082;28;88906;-48
2022/03/14 08:36:26;;;;;;;;;;;-0.70;65.70;;;;;;4965502;28;87307;-51
2022/03/14 08:38:51;;;;;;;;;;;-0.70;65.70;;;;;;4964920;28;87001;-50
2022/03/14 08:41:17;;;;;;;;;;;-0.70;65.70;;;;;;4967747;28;87367;-48
2022/03/14 08:43:43;;;;;;;;;;;-0.70;65.50;;;;;;4965735;28;86903;-48
2022/03/14 08:46:09;;;;;;;;;;;-0.70;65.70;;;;;;4968685;28;86924;-48
2022/03/14 08:48:35;;;;;;;;;;;-0.70;65.80;;;;;;4968333;28;86878;-49
2022/03/14 08:51:01;;;;;;;;;;;-0.70;66.00;;;;;;4968647;28;88042;-48
2022/03/14 08:53:26;;;;;;;;;;;-0.70;66.20;;;;;;4967360;28;89411;-51
2022/03/14 08:55:52;;;;;;;;;;;-0.70;66.10;;;;;;4968431;28;86880;-51
2022/03/14 08:58:17;;;;;;;;;;;-0.70;65.70;;;;;;4968912;28;86956;-50
2022/03/14 09:00:43;;;;;;;;;;;-0.70;65.70;;;;;;4968658;28;87453;-52
2022/03/14 09:03:09;;;;;;;;;;;-0.70;65.00;;;;;;4971664;28;86870;-48
2022/03/14 09:05:35;;;;;;;;;;;-0.70;65.60;;;;;;4968316;28;88517;-51
2022/03/14 09:08:01;;;;;;;;;;;-0.60;65.60;;;;;;4968722;28;86912;-49
2022/03/14 09:10:27;;;;;;;;;;;-0.60;65.30;;;;;;4968788;28;87880;-48
2022/03/14 09:12:53;;;;;;;;;;;-0.60;65.40;;;;;;4968083;28;88506;-48
2022/03/14 09:15:19;;;;;;;;;;;-0.60;64.80;;;;;;4968352;28;86912;-49
2022/03/14 09:17:56;;;;;;;;;;;-0.60;65.40;;;;;;4967805;28;87865;-49
2022/03/14 09:20:23;;;;;;;;;;;-0.60;65.50;;;;;;4968051;28;88681;-50
2022/03/14 09:22:49;;;;;;;;;;;-0.60;64.90;;;;;;4971322;28;86977;-50
2022/03/14 09:25:15;;;;;;;;;;;-0.50;65.10;;;;;;4968108;28;88378;-51
2022/03/14 09:27:41;;;;;;;;;;;-0.50;65.20;;;;;;4968089;28;86977;-49
2022/03/14 09:30:07;;;;;;;;;;;-0.50;64.70;;;;;;4968526;28;86852;-49
2022/03/14 09:32:32;;;;;;;;;;;-0.50;65.40;;;;;;4967791;28;86897;-49
2022/03/14 09:34:59;;;;;;;;;;;-0.40;65.10;;;;;;4968961;28;86095;-50
2022/03/14 09:37:28;;;;;;;;;;;-0.40;65.10;;;;;;4968176;28;87184;-50
2022/03/14 09:39:54;;;;;;;;;;;-0.40;64.70;;;;;;4967782;28;88562;-48
2022/03/14 09:42:21;;;;;;;;;;;-0.40;65.20;;;;;;4967466;28;87852;-49
2022/03/14 09:44:53;;;;;;;;;;;-0.40;65.20;;;;;;4970384;28;88971;-48
2022/03/14 09:47:24;;;;;;;;;;;-0.40;65.30;;;;;;4967684;28;86847;-51
2022/03/14 09:49:54;;;;;;;;;;;-0.40;64.70;;;;;;4968131;28;87190;-48
2022/03/14 09:52:20;;;;;;;;;;;-0.40;65.30;;;;;;4967730;28;87669;-49
2022/03/14 09:54:46;;;;;;;;;;;-0.40;65.00;;;;;;4967680;28;86964;-51
2022/03/14 09:57:11;;;;;;;;;;;-0.30;65.10;;;;;;4968050;28;87352;-48
2022/03/14 09:59:37;;;;;;;;;;;-0.40;65.90;;;;;;4968404;28;86728;-49
2022/03/14 10:02:03;;;;;;;;;;;-0.30;65.30;;;;;;4967825;28;86935;-49
2022/03/14 10:04:29;;;;;;;;;;;-0.30;64.70;;;;;;4967968;28;86826;-49
2022/03/14 10:06:55;;;;;;;;;;;-0.30;65.00;;;;;;4969535;28;88604;-48
2022/03/14 10:09:20;;;;;;;;;;;-0.30;65.20;;;;;;4967614;28;89288;-51
2022/03/14 10:11:46;;;;;;;;;;;-0.20;65.40;;;;;;4967214;28;88452;-49
2022/03/14 10:14:18;;;;;;;;;;;-0.20;64.30;;;;;;4967698;28;86955;-52
2022/03/14 10:16:44;;;;;;;;;;;-0.20;65.30;;;;;;4967534;28;87079;-49
2022/03/14 10:19:10;;;;;;;;;;;-0.10;65.00;;;;;;4967489;28;86860;-52
2022/03/14 10:21:37;;;;;;;;;;;-0.20;65.10;;;;;;4967336;28;87180;-49
2022/03/14 10:24:04;;;;;;;;;;;-0.10;65.60;;;;;;4967828;28;87984;-49
2022/03/14 10:26:31;;;;;;;;;;;-0.10;65.70;;;;;;4967184;28;87727;-50
2022/03/14 10:28:57;;;;;;;;;;;-0.10;64.60;;;;;;4970266;28;86969;-49
2022/03/14 10:31:33;;;;;;;;;;;0.00;64.40;;;;;;4966247;28;89681;-52
2022/03/14 10:34:01;;;;;;;;;;;0.00;64.90;;;;;;4968079;28;87147;-50
2022/03/14 10:36:43;;;;;;;;;;;0.00;65.00;;;;;;4966873;28;87055;-49
2022/03/14 10:39:13;;;;;;;;;;;0.00;64.50;;;;;;4967155;28;87723;-49
2022/03/14 10:41:39;;;;;;;;;;;0.00;64.50;;;;;;4967236;28;86942;-49
2022/03/14 10:44:06;;;;;;;;;;;0.00;65.20;;;;;;4967009;28;88003;-49
2022/03/14 10:46:32;;;;;;;;;;;0.00;65.00;;;;;;4966450;28;88624;-52
2022/03/14 10:48:58;;;;;;;;;;;0.10;64.40;;;;;;4967294;28;86410;-49
2022/03/14 10:51:23;;;;;;;;;;;0.10;65.10;;;;;;4969742;28;86887;-49
2022/03/14 10:53:49;;;;;;;;;;;0.10;64.90;;;;;;4967224;28;86828;-51
2022/03/14 10:56:16;;;;;;;;;;;0.20;64.20;;;;;;4966506;28;88024;-50
2022/03/14 10:58:43;;;;;;;;;;;0.20;65.10;;;;;;4966564;28;88576;-53
2022/03/14 11:01:09;;;;;;;;;;;0.20;63.70;;;;;;4967186;28;86877;-48
2022/03/14 11:03:36;;;;;;;;;;;0.20;64.90;;;;;;4967247;28;86915;-49
2022/03/14 11:06:03;;;;;;;;;;;0.20;64.00;;;;;;4966363;28;88635;-49
2022/03/14 11:08:29;;;;;;;;;;;0.30;64.60;;;;;;4966311;28;86938;-49
2022/03/14 11:10:55;;;;;;;;;;;0.30;64.50;;;;;;4966814;28;87755;-52
2022/03/14 11:13:20;;;;;;;;;;;0.30;63.70;;;;;;4969535;28;87837;-50
2022/03/14 11:15:46;;;;;;;;;;;0.30;64.10;;;;;;4966637;28;86891;-50
2022/03/14 11:18:13;;;;;;;;;;;0.30;64.40;;;;;;4966064;28;88182;-53
2022/03/14 11:20:39;;;;;;;;;;;0.40;64.30;;;;;;4966140;28;87813;-49
2022/03/14 11:23:05;;;;;;;;;;;0.40;63.80;;;;;;4966571;28;87657;-54
2022/03/14 11:25:32;;;;;;;;;;;0.40;63.40;;;;;;4966057;28;88686;-49
2022/03/14 11:27:58;;;;;;;;;;;0.40;64.30;;;;;;4966615;28;86786;-50
2022/03/14 11:30:25;;;;;;;;;;;0.50;63.50;;;;;;4966604;28;87280;-50
2022/03/14 11:32:51;;;;;;;;;;;0.50;63.30;;;;;;4968766;28;87636;-51
2022/03/14 11:35:17;;;;;;;;;;;0.50;63.90;;;;;;4966333;28;86988;-50
2022/03/14 11:37:45;;;;;;;;;;;0.50;64.40;;;;;;4966442;28;87270;-50
2022/03/14 11:40:11;;;;;;;;;;;0.60;63.90;;;;;;4966066;28;87188;-52
2022/03/14 11:42:36;;;;;;;;;;;0.60;63.50;;;;;;4966348;28;88044;-54
2022/03/14 11:45:04;;;;;;;;;;;0.60;64.20;;;;;;4965250;28;89503;-50
2022/03/14 11:47:29;;;;;;;;;;;0.60;64.00;;;;;;4966007;28;86975;-51
2022/03/14 11:49:55;;;;;;;;;;;0.60;63.50;;;;;;4966200;28;87107;-52
2022/03/14 11:52:24;;;;;;;;;;;0.70;63.20;;;;;;4965969;28;87425;-52
2022/03/14 11:55:00;;;;;;;;;;;0.70;64.70;;;;;;4969187;28;86912;-50
2022/03/14 11:57:36;;;;;;;;;;;0.70;64.30;;;;;;4965446;28;88696;-52
2022/03/14 12:00:20;;;;;;;;;;;0.70;63.40;;;;;;4965930;28;86887;-52
2022/03/14 12:02:47;;;;;;;;;;;0.70;63.70;;;;;;4966442;28;87823;-50
2022/03/14 12:05:12;;;;;;;;;;;0.80;63.60;;;;;;4965555;28;88769;-50
2022/03/14 12:07:38;;;;;;;;;;;0.80;64.40;;;;;;4965951;28;86897;-52
2022/03/14 12:10:22;;;;;;;;;;;0.80;63.30;;;;;;4965310;28;88094;-50
2022/03/14 12:12:50;;;;;;;;;;;0.90;63.50;;;;;;4965697;28;87840;-51
2022/03/14 12:15:35;;;;;;;;;;;0.90;63.70;;;;;;4966002;28;86944;-50
2022/03/14 12:18:01;;;;;;;;;;;0.90;63.10;;;;;;4968021;28;88150;-51
2022/03/14 12:20:28;;;;;;;;;;;0.90;63.90;;;;;;4968112;28;86888;-51
2022/03/14 12:22:54;;;;;;;;;;;1.00;64.40;;;;;;4969344;28;87287;-51
2022/03/14 12:25:39;;;;;;;;;;;1.00;64.40;;;;;;4968962;28;88659;-52
2022/03/14 12:28:27;;;;;;;;;;;1.00;63.60;;;;;;4969768;28;86395;-51
2022/03/14 12:30:58;;;;;;;;;;;1.10;64.40;;;;;;4969176;28;87297;-52
2022/03/14 12:33:34;;;;;;;;;;;1.10;63.70;;;;;;4968673;28;88878;-51
2022/03/14 12:36:35;;;;;;;;;;;1.10;63.50;;;;;;4968681;28;88184;-51
2022/03/14 12:39:09;;;;;;;;;;;1.10;63.00;;;;;;4870569;29;88071;-51
2022/03/14 12:41:36;;;;;;;;;;;1.20;62.60;;;;;;4956588;28;87663;-54
2022/03/14 12:44:02;;;;;;;;;;;1.20;63.70;;;;;;4969292;28;86796;-52
2022/03/14 12:46:29;;;;;;;;;;;1.20;63.70;;;;;;4968602;28;88542;-54
2022/03/14 12:48:55;;;;;;;;;;;1.20;62.90;;;;;;4969304;28;86920;-51
2022/03/14 12:51:24;;;;;;;;;;;1.20;63.50;;;;;;4968822;28;87924;-51
2022/03/14 12:53:51;;;;;;;;;;;1.20;64.00;;;;;;4969214;28;86193;-50
2022/03/14 12:56:18;;;;;;;;;;;1.30;64.50;;;;;;4968572;28;87077;-49
2022/03/14 12:58:51;;;;;;;;;;;1.30;64.40;;;;;;4968588;28;86905;-53
2022/03/14 13:01:16;;;;;;;;;;;1.30;62.80;;;;;;4967614;28;89639;-51
2022/03/14 13:03:43;;;;;;;;;;;1.40;62.80;;;;;;4971692;28;86928;-51
2022/03/14 13:06:09;;;;;;;;;;;1.40;62.80;;;;;;4968266;28;88097;-49
2022/03/14 13:08:47;;;;;;;;;;;1.40;63.40;;;;;;4968489;28;86897;-50
2022/03/14 13:11:13;;;;;;;;;;;1.50;63.10;;;;;;4968814;28;86890;-50
2022/03/14 13:13:39;;;;;;;;;;;1.50;63.90;;;;;;4968226;28;88504;-49
2022/03/14 13:16:06;;;;;;;;;;;1.50;63.50;;;;;;4968441;28;87254;-49
2022/03/14 13:18:33;;;;;;;;;;;1.50;62.60;;;;;;4969292;28;86843;-49
2022/03/14 13:20:59;;;;;;;;;;;1.60;62.20;;;;;;4968212;28;88596;-50
2022/03/14 13:23:25;;;;;;;;;;;1.60;62.40;;;;;;4968750;28;86844;-49
2022/03/14 13:25:51;;;;;;;;;;;1.60;63.50;;;;;;4970243;28;87788;-51
2022/03/14 13:28:27;;;;;;;;;;;1.70;62.90;;;;;;4968402;28;87154;-51
2022/03/14 13:30:54;;;;;;;;;;;1.70;62.30;;;;;;4967988;28;87807;-51
2022/03/14 13:33:24;;;;;;;;;;;1.70;62.80;;;;;;4967936;28;88676;-50
2022/03/14 13:35:50;;;;;;;;;;;1.70;64.40;;;;;;4968215;28;86910;-50
2022/03/14 13:38:30;;;;;;;;;;;1.80;63.10;;;;;;4968561;28;86864;-49
2022/03/14 13:40:57;;;;;;;;;;;1.80;63.90;;;;;;4968105;28;88452;-49
2022/03/14 13:43:24;;;;;;;;;;;1.80;64.50;;;;;;4968948;28;86130;-49
2022/03/14 13:45:50;;;;;;;;;;;1.80;64.30;;;;;;4970901;28;87091;-49
2022/03/14 13:48:22;;;;;;;;;;;1.80;63.10;;;;;;4968023;28;87035;-49
2022/03/14 13:50:48;;;;;;;;;;;1.90;64.60;;;;;;4968003;28;88065;-49
2022/03/14 13:53:23;;;;;;;;;;;1.90;62.30;;;;;;4968004;28;88658;-52
2022/03/14 13:55:53;;;;;;;;;;;1.90;63.40;;;;;;4968289;28;86872;-49
2022/03/14 13:58:25;;;;;;;;;;;2.00;63.20;;;;;;4968414;28;86864;-49
2022/03/14 14:00:52;;;;;;;;;;;2.00;63.10;;;;;;4967820;28;88749;-49
2022/03/14 14:03:21;;;;;;;;;;;2.00;63.80;;;;;;4968161;28;86897;-50
2022/03/14 14:05:47;;;;;;;;;;;2.10;63.40;;;;;;4968196;28;88109;-49
2022/03/14 14:08:28;;;;;;;;;;;2.10;63.30;;;;;;4971173;28;88060;-49
2022/03/14 14:10:53;;;;;;;;;;;2.10;62.60;;;;;;4968063;28;87358;-50
2022/03/14 14:13:19;;;;;;;;;;;2.20;61.00;;;;;;4967238;28;88660;-52
2022/03/14 14:15:46;;;;;;;;;;;2.30;59.50;;;;;;4967356;28;87832;-54
2022/03/14 14:18:16;;;;;;;;;;;2.50;60.20;;;;;;4967909;28;89085;-51
2022/03/14 14:20:42;;;;;;;;;;;2.60;61.00;;;;;;4967811;28;86852;-48
2022/03/14 14:23:12;;;;;;;;;;;2.70;58.60;;;;;;4968068;28;86972;-49